Time;durP1;ratioP1;P1;durP2;ratioP2;P2;SDS_P1;SDS_P2;PMS_P1;PMS_P2;Temp;Humidity;BMP_temperature;BMP_pressure;BME280_temperature;BME280_humidity;BME280_pressure;Samples;Min_cycle;Max_cycle;Signal;HPM_P1;HPM_P2
2023/06/03 00:00:05;;;;;;;8.00;6.90;;;;;;;;;;4911241;29;20024;-41
2023/06/03 00:02:30;;;;;;;9.88;6.30;;;;;;;;;;4904919;29;20032;-40
2023/06/03 00:04:56;;;;;;;16.40;6.63;;;;;;;;;;4906638;29;20036;-41
2023/06/03 00:07:21;;;;;;;8.23;6.25;;;;;;;;;;4907881;29;20044;-41
2023/06/03 00:09:46;;;;;;;7.78;6.72;;;;;;;;;;4909629;29;20511;-41
2023/06/03 00:12:12;;;;;;;11.15;7.40;;;;;;;;;;4908694;29;20048;-41
2023/06/03 00:14:37;;;;;;;8.02;7.20;;;;;;;;;;4910398;29;20410;-41
2023/06/03 00:17:03;;;;;;;7.90;6.90;;;;;;;;;;4909181;29;20039;-41
2023/06/03 00:19:28;;;;;;;12.27;7.30;;;;;;;;;;4907896;29;20115;-41
2023/06/03 00:21:54;;;;;;;9.38;7.30;;;;;;;;;;4907532;29;20493;-40
2023/06/03 00:24:22;;;;;;;9.73;7.35;;;;;;;;;;4909218;29;20035;-40
2023/06/03 00:26:51;;;;;;;8.32;7.47;;;;;;;;;;4908212;29;20032;-40
2023/06/03 00:29:16;;;;;;;9.63;7.88;;;;;;;;;;4909020;29;20039;-41
2023/06/03 00:31:42;;;;;;;11.55;7.22;;;;;;;;;;4908920;29;20040;-40
2023/06/03 00:34:07;;;;;;;9.15;8.20;;;;;;;;;;4911411;29;20024;-40
2023/06/03 00:36:33;;;;;;;11.50;8.02;;;;;;;;;;4908663;29;20048;-41
2023/06/03 00:38:58;;;;;;;13.45;8.05;;;;;;;;;;4906863;29;20025;-40
2023/06/03 00:41:25;;;;;;;11.38;8.00;;;;;;;;;;4908698;29;20094;-40
2023/06/03 00:43:50;;;;;;;10.63;8.75;;;;;;;;;;4906405;29;20801;-41
2023/06/03 00:46:19;;;;;;;11.45;8.00;;;;;;;;;;4906550;29;20126;-41
2023/06/03 00:48:45;;;;;;;11.32;8.30;;;;;;;;;;4909899;29;20445;-40
2023/06/03 00:51:11;;;;;;;9.57;8.35;;;;;;;;;;4906614;29;20091;-40
2023/06/03 00:53:37;;;;;;;11.20;7.32;;;;;;;;;;4906778;29;20127;-40
2023/06/03 00:56:03;;;;;;;8.38;7.45;;;;;;;;;;4907265;29;20138;-40
2023/06/03 00:58:29;;;;;;;12.63;7.65;;;;;;;;;;4908099;29;20028;-41
2023/06/03 01:00:55;;;;;;;11.88;7.40;;;;;;;;;;4907533;29;20123;-41
2023/06/03 01:03:20;;;;;;;10.48;7.70;;;;;;;;;;4909297;29;20028;-40
2023/06/03 01:06:01;;;;;;;13.57;7.47;;;;;;;;;;4908559;29;20050;-40
2023/06/03 01:08:52;;;;;;;8.15;7.35;;;;;;;;;;4907282;29;20039;-40
2023/06/03 01:11:29;;;;;;;8.80;7.75;;;;;;;;;;4905906;29;20059;-40
2023/06/03 01:14:03;;;;;;;9.35;7.88;;;;;;;;;;4905595;29;20032;-41
2023/06/03 01:16:30;;;;;;;10.02;7.82;;;;;;;;;;4907936;29;20044;-41
2023/06/03 01:18:57;;;;;;;11.88;7.68;;;;;;;;;;4907696;29;20489;-40
2023/06/03 01:21:24;;;;;;;8.68;7.78;;;;;;;;;;4906965;29;20060;-40
2023/06/03 01:23:51;;;;;;;10.07;7.75;;;;;;;;;;4909689;29;20103;-41
2023/06/03 01:26:16;;;;;;;8.43;7.18;;;;;;;;;;4908485;29;20123;-41
2023/06/03 01:28:42;;;;;;;9.65;7.60;;;;;;;;;;4906866;29;20448;-40
2023/06/03 01:31:08;;;;;;;13.13;8.25;;;;;;;;;;4906829;29;20040;-40
2023/06/03 01:33:35;;;;;;;10.45;7.75;;;;;;;;;;4907707;29;20028;-40
2023/06/03 01:36:03;;;;;;;12.38;8.18;;;;;;;;;;4906711;29;20048;-41
2023/06/03 01:38:28;;;;;;;9.57;7.85;;;;;;;;;;4907998;29;20046;-40
2023/06/03 01:40:54;;;;;;;10.77;8.68;;;;;;;;;;4908389;29;20108;-41
2023/06/03 01:43:20;;;;;;;15.88;8.52;;;;;;;;;;4903107;29;20087;-40
2023/06/03 01:45:46;;;;;;;12.30;7.85;;;;;;;;;;4908229;29;20040;-40
2023/06/03 01:48:11;;;;;;;13.05;8.50;;;;;;;;;;4908514;29;20103;-40
2023/06/03 01:50:44;;;;;;;13.18;8.63;;;;;;;;;;4909116;29;20107;-40
2023/06/03 01:53:09;;;;;;;11.88;8.63;;;;;;;;;;4906434;29;20080;-40
2023/06/03 01:55:36;;;;;;;11.63;8.48;;;;;;;;;;4905693;29;20039;-40
2023/06/03 01:58:02;;;;;;;12.40;8.13;;;;;;;;;;4907674;29;20441;-40
2023/06/03 02:00:28;;;;;;;11.20;8.13;;;;;;;;;;4904435;29;20043;-41
2023/06/03 02:02:53;;;;;;;9.48;7.95;;;;;;;;;;4908165;29;20032;-41
2023/06/03 02:05:19;;;;;;;11.60;8.68;;;;;;;;;;4908449;29;20033;-41
2023/06/03 02:07:44;;;;;;;9.30;7.78;;;;;;;;;;4907110;29;20048;-40
2023/06/03 02:10:09;;;;;;;9.80;8.32;;;;;;;;;;4906311;29;20054;-40
2023/06/03 02:12:35;;;;;;;11.65;8.18;;;;;;;;;;4907149;29;20044;-40
2023/06/03 02:15:00;;;;;;;12.65;8.40;;;;;;;;;;4906134;29;20027;-40
2023/06/03 02:17:26;;;;;;;9.27;7.75;;;;;;;;;;4901921;29;20049;-40
2023/06/03 02:19:53;;;;;;;14.70;8.07;;;;;;;;;;4911703;29;20031;-40
2023/06/03 02:22:18;;;;;;;12.77;9.13;;;;;;;;;;4909514;29;20044;-40
2023/06/03 02:24:47;;;;;;;12.32;8.38;;;;;;;;;;4912264;29;20358;-41
2023/06/03 02:27:19;;;;;;;10.68;7.93;;;;;;;;;;4911638;29;20131;-40
2023/06/03 02:29:50;;;;;;;9.77;7.82;;;;;;;;;;4914009;29;20024;-41
2023/06/03 02:32:16;;;;;;;11.40;8.13;;;;;;;;;;4907913;29;20451;-40
2023/06/03 02:34:43;;;;;;;11.50;7.72;;;;;;;;;;4910984;29;20044;-40
2023/06/03 02:37:10;;;;;;;9.55;8.57;;;;;;;;;;4911657;29;20032;-40
2023/06/03 02:39:36;;;;;;;13.38;8.73;;;;;;;;;;4910960;29;20063;-40
2023/06/03 02:42:01;;;;;;;10.70;9.02;;;;;;;;;;4911717;29;20076;-40
2023/06/03 02:44:27;;;;;;;12.05;8.57;;;;;;;;;;4910308;29;20020;-40
2023/06/03 02:46:53;;;;;;;12.05;8.48;;;;;;;;;;4911812;29;20048;-40
2023/06/03 02:49:18;;;;;;;11.95;9.10;;;;;;;;;;4910879;29;20028;-40
2023/06/03 02:51:43;;;;;;;13.23;7.95;;;;;;;;;;4909398;29;20050;-40
2023/06/03 02:54:09;;;;;;;18.98;8.90;;;;;;;;;;4910884;29;20094;-40
2023/06/03 02:56:34;;;;;;;11.00;8.88;;;;;;;;;;4908229;29;20059;-40
2023/06/03 02:59:00;;;;;;;16.30;9.05;;;;;;;;;;4911493;29;20039;-40
2023/06/03 03:01:27;;;;;;;11.50;9.43;;;;;;;;;;4910056;29;20044;-40
2023/06/03 03:03:52;;;;;;;11.50;8.55;;;;;;;;;;4908113;29;20032;-40
2023/06/03 03:06:21;;;;;;;13.35;9.15;;;;;;;;;;4908200;29;20052;-40
2023/06/03 03:08:50;;;;;;;17.85;9.20;;;;;;;;;;4910438;29;20028;-40
2023/06/03 03:11:16;;;;;;;11.85;8.93;;;;;;;;;;4909182;29;20104;-40
2023/06/03 03:13:42;;;;;;;10.93;9.40;;;;;;;;;;4908421;29;20040;-40
2023/06/03 03:16:08;;;;;;;14.95;10.25;;;;;;;;;;4907997;29;20127;-40
2023/06/03 03:18:34;;;;;;;14.10;10.63;;;;;;;;;;4910513;29;20043;-40
2023/06/03 03:20:59;;;;;;;15.02;11.32;;;;;;;;;;4908208;29;20052;-40
2023/06/03 03:23:26;;;;;;;20.33;11.27;;;;;;;;;;4909807;29;20024;-40
2023/06/03 03:25:51;;;;;;;21.70;12.43;;;;;;;;;;4908214;29;20402;-40
2023/06/03 03:28:17;;;;;;;16.02;10.55;;;;;;;;;;4907199;29;20028;-40
2023/06/03 03:30:49;;;;;;;15.75;10.82;;;;;;;;;;4910358;29;21446;-40
2023/06/03 03:33:15;;;;;;;16.90;10.90;;;;;;;;;;4910207;29;20040;-40
2023/06/03 03:35:40;;;;;;;14.35;11.05;;;;;;;;;;4910078;29;20039;-41
2023/06/03 03:38:06;;;;;;;15.15;11.45;;;;;;;;;;4910131;29;20028;-41
2023/06/03 03:40:35;;;;;;;16.13;11.20;;;;;;;;;;4906585;29;20036;-42
2023/06/03 03:43:02;;;;;;;12.70;11.52;;;;;;;;;;4909681;29;20068;-41
2023/06/03 03:45:35;;;;;;;14.43;11.27;;;;;;;;;;4908738;29;20491;-41
2023/06/03 03:48:20;;;;;;;14.90;11.82;;;;;;;;;;4907689;29;20036;-41
2023/06/03 03:50:50;;;;;;;13.95;11.40;;;;;;;;;;4910147;29;20075;-41
2023/06/03 03:53:30;;;;;;;20.73;11.98;;;;;;;;;;4908814;29;20042;-40
2023/06/03 03:55:57;;;;;;;15.80;12.45;;;;;;;;;;4909133;29;20080;-41
2023/06/03 03:58:25;;;;;;;15.43;12.30;;;;;;;;;;4909352;29;20969;-41
2023/06/03 04:00:51;;;;;;;15.38;12.82;;;;;;;;;;4910820;29;20120;-40
2023/06/03 04:03:18;;;;;;;16.38;12.88;;;;;;;;;;4911802;29;20039;-40
2023/06/03 04:05:47;;;;;;;17.48;12.57;;;;;;;;;;4908655;29;20048;-40
2023/06/03 04:08:39;;;;;;;18.10;11.88;;;;;;;;;;4909587;29;20032;-40
2023/06/03 04:11:07;;;;;;;14.80;12.77;;;;;;;;;;4899199;29;20044;-40
2023/06/03 04:13:38;;;;;;;15.45;12.70;;;;;;;;;;4909850;29;20024;-40
2023/06/03 04:16:08;;;;;;;21.60;12.48;;;;;;;;;;4909544;29;20123;-40
2023/06/03 04:18:40;;;;;;;19.20;12.60;;;;;;;;;;4909844;29;20030;-40
2023/06/03 04:21:08;;;;;;;17.30;12.60;;;;;;;;;;4907156;29;20123;-40
2023/06/03 04:23:34;;;;;;;16.67;13.50;;;;;;;;;;4907249;29;20090;-40
2023/06/03 04:25:59;;;;;;;20.30;13.63;;;;;;;;;;4909987;29;20493;-41
2023/06/03 04:28:25;;;;;;;17.67;14.13;;;;;;;;;;4907925;29;20055;-41
2023/06/03 04:30:50;;;;;;;18.63;13.40;;;;;;;;;;4907782;29;20543;-40
2023/06/03 04:33:15;;;;;;;18.70;13.25;;;;;;;;;;4908782;29;20051;-40
2023/06/03 04:35:41;;;;;;;20.35;14.48;;;;;;;;;;4905956;29;20508;-40
2023/06/03 04:38:06;;;;;;;23.58;14.88;;;;;;;;;;4909846;29;20107;-40
2023/06/03 04:40:31;;;;;;;21.35;13.73;;;;;;;;;;4908953;29;20028;-40
2023/06/03 04:42:57;;;;;;;27.70;14.88;;;;;;;;;;4905446;29;20035;-40
2023/06/03 04:45:23;;;;;;;20.52;14.68;;;;;;;;;;4907641;29;20106;-41
2023/06/03 04:47:52;;;;;;;22.30;15.00;;;;;;;;;;4908516;29;20397;-40
2023/06/03 04:50:19;;;;;;;20.25;15.18;;;;;;;;;;4909354;29;20119;-40
2023/06/03 04:52:46;;;;;;;24.63;15.95;;;;;;;;;;4908823;29;20846;-41
2023/06/03 04:55:12;;;;;;;22.88;14.63;;;;;;;;;;4907058;29;20109;-40
2023/06/03 04:57:38;;;;;;;30.00;16.27;;;;;;;;;;4910400;29;20040;-41
2023/06/03 05:00:06;;;;;;;28.92;15.55;;;;;;;;;;4907478;29;20032;-40
2023/06/03 05:02:32;;;;;;;29.95;16.40;;;;;;;;;;4908092;29;20048;-41
2023/06/03 05:04:57;;;;;;;26.63;16.00;;;;;;;;;;4908013;29;20103;-41
2023/06/03 05:07:24;;;;;;;28.35;15.73;;;;;;;;;;4905091;29;20374;-40
2023/06/03 05:09:50;;;;;;;25.30;15.52;;;;;;;;;;4906303;29;20528;-40
2023/06/03 05:12:18;;;;;;;25.38;16.23;;;;;;;;;;4908582;29;20403;-41
2023/06/03 05:14:44;;;;;;;25.10;15.52;;;;;;;;;;4908225;29;20024;-41
2023/06/03 05:17:09;;;;;;;23.92;15.50;;;;;;;;;;4906895;29;20032;-41
2023/06/03 05:19:35;;;;;;;23.65;15.25;;;;;;;;;;4910512;29;20039;-44
2023/06/03 05:22:03;;;;;;;25.27;15.05;;;;;;;;;;4907635;29;20048;-40
2023/06/03 05:24:28;;;;;;;23.08;15.25;;;;;;;;;;4908967;29;20028;-40
2023/06/03 05:26:54;;;;;;;22.55;14.93;;;;;;;;;;4906318;29;20135;-40
2023/06/03 05:29:19;;;;;;;24.75;14.40;;;;;;;;;;4907795;29;20057;-40
2023/06/03 05:31:44;;;;;;;23.35;14.93;;;;;;;;;;4906711;29;20055;-40
2023/06/03 05:34:10;;;;;;;26.52;15.23;;;;;;;;;;4904996;29;20032;-41
2023/06/03 05:36:36;;;;;;;23.80;14.40;;;;;;;;;;4906514;29;20044;-40
2023/06/03 05:39:02;;;;;;;26.25;15.15;;;;;;;;;;4905655;29;20032;-40
2023/06/03 05:41:29;;;;;;;19.52;14.15;;;;;;;;;;4907882;29;20043;-41
2023/06/03 05:43:54;;;;;;;21.48;13.73;;;;;;;;;;4906486;29;20102;-41
2023/06/03 05:46:19;;;;;;;23.23;13.80;;;;;;;;;;4907176;29;20497;-41
2023/06/03 05:48:45;;;;;;;23.35;14.05;;;;;;;;;;4907661;29;20036;-41
2023/06/03 05:51:11;;;;;;;22.45;14.23;;;;;;;;;;4906777;29;20506;-41
2023/06/03 05:53:38;;;;;;;20.38;14.27;;;;;;;;;;4907491;29;20041;-40
2023/06/03 05:56:03;;;;;;;26.60;15.57;;;;;;;;;;4909166;29;20120;-40
2023/06/03 05:58:29;;;;;;;22.85;14.15;;;;;;;;;;4906195;29;20482;-40
2023/06/03 06:00:54;;;;;;;23.15;14.85;;;;;;;;;;4906588;29;21513;-39
2023/06/03 06:03:20;;;;;;;26.85;14.02;;;;;;;;;;4907743;29;20087;-40
2023/06/03 06:05:45;;;;;;;21.92;13.50;;;;;;;;;;4905738;29;20051;-41
2023/06/03 06:08:11;;;;;;;23.42;13.60;;;;;;;;;;4902955;29;20520;-41
2023/06/03 06:10:36;;;;;;;20.77;13.95;;;;;;;;;;4905941;29;20420;-41
2023/06/03 06:13:02;;;;;;;24.67;14.43;;;;;;;;;;4905808;29;20088;-41
2023/06/03 06:15:30;;;;;;;25.10;14.18;;;;;;;;;;4906267;29;20037;-40
2023/06/03 06:17:55;;;;;;;19.75;13.40;;;;;;;;;;4907412;29;20167;-40
2023/06/03 06:20:20;;;;;;;18.63;13.57;;;;;;;;;;4907696;29;20059;-41
2023/06/03 06:22:49;;;;;;;22.70;13.45;;;;;;;;;;4907971;29;20095;-40
2023/06/03 06:25:15;;;;;;;23.50;14.10;;;;;;;;;;4906178;29;20130;-41
2023/06/03 06:27:41;;;;;;;22.00;15.32;;;;;;;;;;4905569;29;20064;-40
2023/06/03 06:30:07;;;;;;;19.63;13.98;;;;;;;;;;4900338;29;20041;-40
2023/06/03 06:32:44;;;;;;;22.00;14.05;;;;;;;;;;4907938;29;20043;-40
2023/06/03 06:35:09;;;;;;;23.40;15.35;;;;;;;;;;4907399;29;20055;-41
2023/06/03 06:37:35;;;;;;;22.02;15.45;;;;;;;;;;4907743;29;20045;-40
2023/06/03 06:40:00;;;;;;;21.80;15.35;;;;;;;;;;4907571;29;20161;-41
2023/06/03 06:42:31;;;;;;;22.05;15.98;;;;;;;;;;4904705;29;20047;-41
2023/06/03 06:44:56;;;;;;;23.67;16.08;;;;;;;;;;4905568;29;20114;-41
2023/06/03 06:47:27;;;;;;;21.95;15.52;;;;;;;;;;4905923;29;20123;-41
2023/06/03 06:49:56;;;;;;;21.85;14.68;;;;;;;;;;4906553;29;20028;-41
2023/06/03 06:52:23;;;;;;;19.55;14.20;;;;;;;;;;4904887;29;20056;-41
2023/06/03 06:54:49;;;;;;;21.70;13.75;;;;;;;;;;4903910;29;20032;-40
2023/06/03 06:57:23;;;;;;;20.45;14.48;;;;;;;;;;4907282;29;20055;-41
2023/06/03 06:59:51;;;;;;;19.13;14.43;;;;;;;;;;4905216;29;20032;-41
2023/06/03 07:02:17;;;;;;;20.25;13.70;;;;;;;;;;4899852;29;20128;-40
2023/06/03 07:04:42;;;;;;;18.90;13.82;;;;;;;;;;4903120;29;20173;-41
2023/06/03 07:07:08;;;;;;;16.45;13.40;;;;;;;;;;4897038;29;20049;-41
2023/06/03 07:09:33;;;;;;;20.77;14.27;;;;;;;;;;4905663;29;20156;-40
2023/06/03 07:11:59;;;;;;;23.48;13.13;;;;;;;;;;4901671;29;20452;-41
2023/06/03 07:14:29;;;;;;;21.20;13.65;;;;;;;;;;4904423;29;20121;-41
2023/06/03 07:16:55;;;;;;;18.65;12.27;;;;;;;;;;4904922;29;20050;-41
2023/06/03 07:19:20;;;;;;;18.85;12.13;;;;;;;;;;4908536;29;20472;-41
2023/06/03 07:21:46;;;;;;;15.43;12.15;;;;;;;;;;4903669;29;20048;-41
2023/06/03 07:24:15;;;;;;;14.85;10.75;;;;;;;;;;4903893;29;20052;-45
2023/06/03 07:26:40;;;;;;;14.60;11.30;;;;;;;;;;4906162;29;20413;-41
2023/06/03 07:29:06;;;;;;;17.75;10.70;;;;;;;;;;4903483;29;20036;-41
2023/06/03 07:31:35;;;;;;;11.95;10.43;;;;;;;;;;4902475;29;20131;-41
2023/06/03 07:34:01;;;;;;;16.65;11.65;;;;;;;;;;4906663;29;20521;-42
2023/06/03 07:36:26;;;;;;;14.88;11.57;;;;;;;;;;4907983;29;20036;-41
2023/06/03 07:39:06;;;;;;;14.70;11.45;;;;;;;;;;4907870;29;20095;-41
2023/06/03 07:41:50;;;;;;;13.00;11.18;;;;;;;;;;4902748;29;20037;-41
2023/06/03 07:44:44;;;;;;;12.23;10.52;;;;;;;;;;4908264;29;20085;-41
2023/06/03 07:47:12;;;;;;;14.32;10.85;;;;;;;;;;4905430;29;20107;-41
2023/06/03 07:49:38;;;;;;;12.73;10.50;;;;;;;;;;4909930;29;20481;-41
2023/06/03 07:52:04;;;;;;;11.95;10.40;;;;;;;;;;4905358;29;20055;-41
2023/06/03 07:54:29;;;;;;;12.18;9.73;;;;;;;;;;4908873;29;20540;-41
2023/06/03 07:56:56;;;;;;;10.95;9.40;;;;;;;;;;4903264;29;20054;-40
2023/06/03 07:59:23;;;;;;;10.90;9.52;;;;;;;;;;4901999;29;20445;-41
2023/06/03 08:01:51;;;;;;;14.55;10.10;;;;;;;;;;4905234;29;20047;-41
2023/06/03 08:04:34;;;;;;;11.93;10.00;;;;;;;;;;4901256;29;20032;-41
2023/06/03 08:07:00;;;;;;;13.38;9.55;;;;;;;;;;4904951;29;20510;-42
2023/06/03 08:09:26;;;;;;;11.57;8.70;;;;;;;;;;4907469;29;20044;-41
2023/06/03 08:11:51;;;;;;;12.10;8.68;;;;;;;;;;4905850;29;22847;-41
2023/06/03 08:14:19;;;;;;;12.95;9.05;;;;;;;;;;4909171;29;20052;-40
2023/06/03 08:16:45;;;;;;;10.15;8.80;;;;;;;;;;4908236;29;20036;-41
2023/06/03 08:19:11;;;;;;;33.17;11.07;;;;;;;;;;4891309;29;20052;-41
2023/06/03 08:21:37;;;;;;;9.82;8.35;;;;;;;;;;4910108;29;20140;-41
2023/06/03 08:24:03;;;;;;;10.98;7.93;;;;;;;;;;4908764;29;20708;-41
2023/06/03 08:26:28;;;;;;;9.35;7.68;;;;;;;;;;4907141;29;20081;-41
2023/06/03 08:28:53;;;;;;;10.85;7.88;;;;;;;;;;4908144;29;20079;-40
2023/06/03 08:31:19;;;;;;;9.77;8.07;;;;;;;;;;4909983;29;20505;-41
2023/06/03 08:33:44;;;;;;;15.05;7.22;;;;;;;;;;4909833;29;20028;-41
2023/06/03 08:36:11;;;;;;;6.95;6.38;;;;;;;;;;4907981;29;20044;-40
2023/06/03 08:38:38;;;;;;;9.35;7.47;;;;;;;;;;4907335;29;20036;-41
2023/06/03 08:41:05;;;;;;;8.23;7.22;;;;;;;;;;4909423;29;20044;-40
2023/06/03 08:43:40;;;;;;;8.93;7.07;;;;;;;;;;4910224;29;20032;-41
2023/06/03 08:46:23;;;;;;;11.23;6.80;;;;;;;;;;4907847;29;20044;-46
2023/06/03 08:49:04;;;;;;;10.50;7.15;;;;;;;;;;4909144;29;20520;-41
2023/06/03 08:51:36;;;;;;;7.93;7.00;;;;;;;;;;4905394;29;20119;-40
2023/06/03 08:54:08;;;;;;;6.82;6.22;;;;;;;;;;4906283;29;20054;-41
2023/06/03 08:56:38;;;;;;;6.68;6.07;;;;;;;;;;4908873;29;20048;-41
2023/06/03 08:59:05;;;;;;;8.65;5.60;;;;;;;;;;4909041;29;20035;-41
2023/06/03 09:01:35;;;;;;;6.13;5.47;;;;;;;;;;4891710;29;20501;-41
2023/06/03 09:04:02;;;;;;;6.90;5.80;;;;;;;;;;4908875;29;20036;-41
2023/06/03 09:06:28;;;;;;;7.70;6.90;;;;;;;;;;4908346;29;20044;-41
2023/06/03 09:08:54;;;;;;;8.90;5.90;;;;;;;;;;4907591;29;20035;-40
2023/06/03 09:11:20;;;;;;;9.05;5.80;;;;;;;;;;4888787;29;20037;-40
2023/06/03 09:13:46;;;;;;;6.78;6.07;;;;;;;;;;4908974;29;20050;-41
2023/06/03 09:16:13;;;;;;;6.65;6.07;;;;;;;;;;4907611;29;20041;-41
2023/06/03 09:18:39;;;;;;;10.10;8.63;;;;;;;;;;4908710;29;20111;-41
2023/06/03 09:21:10;;;;;;;10.23;8.95;;;;;;;;;;4907622;29;20044;-41
2023/06/03 09:23:38;;;;;;;12.02;8.05;;;;;;;;;;4909630;29;20024;-41
2023/06/03 09:26:04;;;;;;;10.15;8.60;;;;;;;;;;4907478;29;20100;-40
2023/06/03 09:28:30;;;;;;;9.15;8.23;;;;;;;;;;4908582;29;20024;-41
2023/06/03 09:30:55;;;;;;;8.75;7.82;;;;;;;;;;4905845;29;20099;-41
2023/06/03 09:33:22;;;;;;;12.18;9.00;;;;;;;;;;4907801;29;20135;-41
2023/06/03 09:36:06;;;;;;;14.02;9.20;;;;;;;;;;4907844;29;20143;-41
2023/06/03 09:38:55;;;;;;;13.43;9.25;;;;;;;;;;4907560;29;20036;-41
2023/06/03 09:41:27;;;;;;;17.55;10.00;;;;;;;;;;4906144;29;20047;-40
2023/06/03 09:43:56;;;;;;;12.45;10.25;;;;;;;;;;4909586;29;20040;-40
2023/06/03 09:46:21;;;;;;;12.90;8.98;;;;;;;;;;4905997;29;20047;-41
2023/06/03 09:48:47;;;;;;;11.68;9.73;;;;;;;;;;4905617;29;20032;-40
2023/06/03 09:51:12;;;;;;;14.60;10.23;;;;;;;;;;4907514;29;20076;-42
2023/06/03 09:53:37;;;;;;;13.93;9.88;;;;;;;;;;4908305;29;20035;-41
2023/06/03 09:56:23;;;;;;;13.77;10.10;;;;;;;;;;4902714;29;20043;-41
2023/06/03 09:58:52;;;;;;;9.60;8.68;;;;;;;;;;4906760;29;20501;-40
2023/06/03 10:01:30;;;;;;;12.18;9.18;;;;;;;;;;4891364;29;20500;-40
2023/06/03 10:03:59;;;;;;;15.25;9.13;;;;;;;;;;4904851;29;20039;-40
2023/06/03 10:06:24;;;;;;;10.43;7.80;;;;;;;;;;4904109;29;20148;-41
2023/06/03 10:08:50;;;;;;;11.43;9.07;;;;;;;;;;4907068;29;20549;-41
2023/06/03 10:11:15;;;;;;;11.63;8.40;;;;;;;;;;4903432;29;20119;-41
2023/06/03 10:13:41;;;;;;;10.38;8.48;;;;;;;;;;4906734;29;20151;-42
2023/06/03 10:16:11;;;;;;;11.88;8.15;;;;;;;;;;4904050;29;20767;-40
2023/06/03 10:18:37;;;;;;;9.68;8.20;;;;;;;;;;4908888;29;20788;-41
2023/06/03 10:21:07;;;;;;;9.38;8.32;;;;;;;;;;4906042;29;20123;-41
2023/06/03 10:23:36;;;;;;;11.20;8.60;;;;;;;;;;4907722;29;20060;-40
2023/06/03 10:26:02;;;;;;;12.00;8.38;;;;;;;;;;4889451;29;20457;-40
2023/06/03 10:28:30;;;;;;;9.13;8.20;;;;;;;;;;4907282;29;20636;-41
2023/06/03 10:30:57;;;;;;;9.07;8.05;;;;;;;;;;4908067;29;20123;-41
2023/06/03 10:33:23;;;;;;;9.40;7.20;;;;;;;;;;4909101;29;20044;-41
2023/06/03 10:35:49;;;;;;;8.18;6.97;;;;;;;;;;4906581;29;20041;-41
2023/06/03 10:38:15;;;;;;;8.25;6.35;;;;;;;;;;4908846;29;20119;-41
2023/06/03 10:40:41;;;;;;;8.68;7.72;;;;;;;;;;4906708;29;20032;-40
2023/06/03 10:43:09;;;;;;;8.90;7.07;;;;;;;;;;4910333;29;20889;-40
2023/06/03 10:45:35;;;;;;;9.07;5.75;;;;;;;;;;4908849;29;20039;-40
2023/06/03 10:48:05;;;;;;;7.65;5.72;;;;;;;;;;4911744;29;20032;-40
2023/06/03 10:50:33;;;;;;;17.38;6.78;;;;;;;;;;4908340;29;20040;-40
2023/06/03 10:53:26;;;;;;;11.15;7.13;;;;;;;;;;4908364;29;20043;-40
2023/06/03 10:56:13;;;;;;;10.52;7.53;;;;;;;;;;4907450;29;20100;-41
2023/06/03 10:58:42;;;;;;;11.73;10.52;;;;;;;;;;4902540;29;20452;-41
2023/06/03 11:01:08;;;;;;;12.30;8.90;;;;;;;;;;4907370;29;20046;-42
2023/06/03 11:03:51;;;;;;;9.45;8.48;;;;;;;;;;4906709;29;20036;-42
2023/06/03 11:06:21;;;;;;;8.95;8.05;;;;;;;;;;4893022;29;20047;-42
2023/06/03 11:09:07;;;;;;;10.10;8.38;;;;;;;;;;4908047;29;20043;-43
2023/06/03 11:11:41;;;;;;;10.45;7.78;;;;;;;;;;4908198;29;20040;-41
2023/06/03 11:14:10;;;;;;;9.77;7.63;;;;;;;;;;4907416;29;20029;-41
2023/06/03 11:16:59;;;;;;;10.60;9.50;;;;;;;;;;4908291;29;20390;-42
2023/06/03 11:19:43;;;;;;;9.77;8.77;;;;;;;;;;4910687;29;20096;-41
2023/06/03 11:22:09;;;;;;;10.85;9.50;;;;;;;;;;4905721;29;20044;-43
2023/06/03 11:24:38;;;;;;;14.52;10.73;;;;;;;;;;4909893;29;20078;-41
2023/06/03 11:27:15;;;;;;;12.25;9.93;;;;;;;;;;4908262;29;20040;-41
2023/06/03 11:29:46;;;;;;;9.80;8.77;;;;;;;;;;4910243;29;20568;-41
2023/06/03 11:32:12;;;;;;;14.57;10.82;;;;;;;;;;4905322;29;20091;-41
2023/06/03 11:34:37;;;;;;;11.82;9.43;;;;;;;;;;4908466;29;20447;-41
2023/06/03 11:37:03;;;;;;;9.98;8.70;;;;;;;;;;4906015;29;20072;-41
2023/06/03 11:40:05;;;;;;;13.85;10.95;;;;;;;;;;4909095;29;20024;-41
2023/06/03 11:42:31;;;;;;;;;;;;;;;;;;4908341;29;20184;-41
2023/06/03 11:45:24;;;;;;;11.93;8.50;;;;;;;;;;4908865;29;20346;-41
2023/06/03 11:47:54;;;;;;;9.98;8.65;;;;;;;;;;4909233;29;20127;-41
2023/06/03 11:50:24;;;;;;;9.45;8.30;;;;;;;;;;4909016;29;20052;-41
2023/06/03 11:52:50;;;;;;;9.77;8.85;;;;;;;;;;4907205;29;20145;-42
2023/06/03 11:55:31;;;;;;;12.68;9.82;;;;;;;;;;4911769;29;20159;-41
2023/06/03 11:58:14;;;;;;;10.35;9.35;;;;;;;;;;4908854;29;20052;-41
2023/06/03 12:00:39;;;;;;;14.57;10.98;;;;;;;;;;4906399;29;20096;-40
2023/06/03 12:03:05;;;;;;;11.57;10.30;;;;;;;;;;4907895;29;20471;-41
2023/06/03 12:05:31;;;;;;;11.30;10.10;;;;;;;;;;4907559;29;20051;-40
2023/06/03 12:07:59;;;;;;;14.10;9.90;;;;;;;;;;4908427;29;20020;-42
2023/06/03 12:10:25;;;;;;;14.55;10.15;;;;;;;;;;4902731;29;20045;-40
2023/06/03 12:12:55;;;;;;;13.85;10.75;;;;;;;;;;4908531;29;20040;-41
2023/06/03 12:15:21;;;;;;;14.52;11.85;;;;;;;;;;4893097;29;20032;-40
2023/06/03 12:17:47;;;;;;;16.42;11.77;;;;;;;;;;4904648;29;20119;-41
2023/06/03 12:20:26;;;;;;;16.05;11.68;;;;;;;;;;4907763;29;20028;-40
2023/06/03 12:22:59;;;;;;;12.50;10.32;;;;;;;;;;4907976;29;20063;-41
2023/06/03 12:25:25;;;;;;;13.75;11.05;;;;;;;;;;4909097;29;20059;-41
2023/06/03 12:27:50;;;;;;;12.48;10.73;;;;;;;;;;4907377;29;20031;-40
2023/06/03 12:30:37;;;;;;;15.25;10.52;;;;;;;;;;4909744;29;20044;-41
2023/06/03 12:33:02;;;;;;;13.65;11.05;;;;;;;;;;4906572;29;20056;-41
2023/06/03 12:35:28;;;;;;;14.30;10.60;;;;;;;;;;4904414;29;20076;-40
2023/06/03 12:38:08;;;;;;;10.82;9.75;;;;;;;;;;4908494;29;20032;-41
2023/06/03 12:40:35;;;;;;;10.55;9.40;;;;;;;;;;4906800;29;20051;-41
2023/06/03 12:43:02;;;;;;;14.60;9.07;;;;;;;;;;4904372;29;20067;-41
2023/06/03 12:45:27;;;;;;;10.77;8.75;;;;;;;;;;4907031;29;20060;-40
2023/06/03 12:47:53;;;;;;;11.35;7.38;;;;;;;;;;4907769;29;20151;-41
2023/06/03 12:50:20;;;;;;;8.43;7.63;;;;;;;;;;4908044;29;20155;-41
2023/06/03 12:52:47;;;;;;;7.03;6.32;;;;;;;;;;4907311;29;20059;-41
2023/06/03 12:55:14;;;;;;;8.93;6.60;;;;;;;;;;4905755;29;20032;-41
2023/06/03 12:57:41;;;;;;;7.57;6.57;;;;;;;;;;4904835;29;20040;-41
2023/06/03 13:00:19;;;;;;;7.63;6.57;;;;;;;;;;4904898;29;20036;-41
2023/06/03 13:02:46;;;;;;;6.75;6.07;;;;;;;;;;4905563;29;20046;-39
2023/06/03 13:05:12;;;;;;;6.88;6.20;;;;;;;;;;4903418;29;20040;-41
2023/06/03 13:07:40;;;;;;;7.45;6.15;;;;;;;;;;4901779;29;20036;-41
2023/06/03 13:10:08;;;;;;;6.80;6.10;;;;;;;;;;4899341;29;20668;-41
2023/06/03 13:12:35;;;;;;;9.00;6.38;;;;;;;;;;4905631;29;21052;-41
2023/06/03 13:15:01;;;;;;;7.97;5.82;;;;;;;;;;4902276;29;20068;-41
2023/06/03 13:17:27;;;;;;;6.43;5.50;;;;;;;;;;4900843;29;20521;-40
2023/06/03 13:19:53;;;;;;;5.95;5.35;;;;;;;;;;4904974;29;20481;-40
2023/06/03 13:22:23;;;;;;;5.40;4.82;;;;;;;;;;4906426;29;20056;-42
2023/06/03 13:24:49;;;;;;;6.85;5.30;;;;;;;;;;4906109;29;20477;-41
2023/06/03 13:27:15;;;;;;;5.28;4.80;;;;;;;;;;4905039;29;20055;-41
2023/06/03 13:29:41;;;;;;;6.90;4.75;;;;;;;;;;4904265;29;20047;-40
2023/06/03 13:32:07;;;;;;;7.18;5.18;;;;;;;;;;4907857;29;20048;-41
2023/06/03 13:34:33;;;;;;;6.25;4.30;;;;;;;;;;4901188;29;20034;-40
2023/06/03 13:36:59;;;;;;;5.85;4.20;;;;;;;;;;4906066;29;20040;-40
2023/06/03 13:39:25;;;;;;;6.18;4.32;;;;;;;;;;4906096;29;20470;-41
2023/06/03 13:41:54;;;;;;;5.88;3.88;;;;;;;;;;4903164;29;20036;-40
2023/06/03 13:44:20;;;;;;;4.72;3.97;;;;;;;;;;4905888;29;20036;-40
2023/06/03 13:46:49;;;;;;;4.55;3.30;;;;;;;;;;4906744;29;20520;-41
2023/06/03 13:49:14;;;;;;;4.82;3.45;;;;;;;;;;4907829;29;20039;-41
2023/06/03 13:51:40;;;;;;;5.05;3.05;;;;;;;;;;4905400;29;20096;-39
2023/06/03 13:54:06;;;;;;;6.95;3.47;;;;;;;;;;4905849;29;20036;-41
2023/06/03 13:56:32;;;;;;;5.22;3.22;;;;;;;;;;4907608;29;20412;-40
2023/06/03 13:58:57;;;;;;;3.35;3.05;;;;;;;;;;4908915;29;20020;-40
2023/06/03 14:01:22;;;;;;;7.90;3.05;;;;;;;;;;4905529;29;20131;-39
2023/06/03 14:03:48;;;;;;;4.07;3.03;;;;;;;;;;4904778;29;20031;-40
2023/06/03 14:06:13;;;;;;;5.20;2.80;;;;;;;;;;4907866;29;20509;-41
2023/06/03 14:08:39;;;;;;;7.20;3.63;;;;;;;;;;4906688;29;20030;-40
2023/06/03 14:11:08;;;;;;;7.18;3.30;;;;;;;;;;4904012;29;20044;-40
2023/06/03 14:13:33;;;;;;;4.90;3.03;;;;;;;;;;4903716;29;20043;-40
2023/06/03 14:15:58;;;;;;;3.38;3.08;;;;;;;;;;4908997;29;20791;-40
2023/06/03 14:18:24;;;;;;;5.88;2.97;;;;;;;;;;4909803;29;20028;-41
2023/06/03 14:20:49;;;;;;;5.15;2.72;;;;;;;;;;4907880;29;20046;-40
2023/06/03 14:23:15;;;;;;;5.35;3.22;;;;;;;;;;4909313;29;20040;-41
2023/06/03 14:25:40;;;;;;;7.82;3.15;;;;;;;;;;4909819;29;20027;-40
2023/06/03 14:28:06;;;;;;;3.75;2.88;;;;;;;;;;4909701;29;20040;-40
2023/06/03 14:30:31;;;;;;;3.13;2.70;;;;;;;;;;4910704;29;20032;-40
2023/06/03 14:32:57;;;;;;;7.63;3.30;;;;;;;;;;4910510;29;20055;-40